»·PEaware :: N65GP KOTH-KEUG

N65GP :: KOTH-KEUG

FLIGHT INFORMATION

Flight Status: Arrived
Operator: Privately registered:
United States
More flights under this callsign
Pilot: Tom L. (6372)
Aircraft: CESSNA 182 SKYLANE
(C182)
More flights by this aircraft type
Origin: KOTH North Bend Mun
United States
Destination: KEUG Mahlon Sweet
United States
More flights between these airports :: More routes between these airports
Route: OTH V121 EUG
File this flight plan on PilotEdge
Remarks:
Altitude:
(Current/Filed)
5,000ft
Speed:
(Current/Filed)
135kts
Departed: 23-Dec-17 01:09 PM
Arrived: 23-Dec-17 01:58 PM
Distance/Time
Traveled:
61nm/0:48
Distance/Time
To Go:
Arrived

Flight Plot

Page will automatically refresh every two minutes.

Flight plan parsing failed; only flown route is shown


Map Options




Map Legend


Flown Route
Filed Route
Departure Airport
Arrival Airport
Navaid (VOR, NDB)
Fix

Horizontal Profiles

Position Reports

Time Latitude Longitude Heading Altitude Ground
Speed
23-Dec-17 12:45 43.408357 -124.239373 179 11ft 0kts
23-Dec-17 12:46 43.408357 -124.239373 179 11ft 0kts
23-Dec-17 12:47 43.408357 -124.239373 179 11ft 0kts
23-Dec-17 12:48 43.408357 -124.239373 179 11ft 0kts
23-Dec-17 12:49 43.408357 -124.239373 179 11ft 0kts
23-Dec-17 12:50 43.408357 -124.239373 179 11ft 0kts
23-Dec-17 12:51 43.408357 -124.239373 179 11ft 0kts
23-Dec-17 12:52 43.408357 -124.239373 179 11ft 0kts
23-Dec-17 12:53 43.408357 -124.239373 179 11ft 0kts
23-Dec-17 12:54 43.408321 -124.239373 179 11ft 0kts
23-Dec-17 12:55 43.408737 -124.239467 345 11ft 0kts
23-Dec-17 12:56 43.408744 -124.239469 345 11ft 0kts
23-Dec-17 12:57 43.408750 -124.239471 345 11ft 0kts
23-Dec-17 12:58 43.408891 -124.239572 313 11ft 8kts
23-Dec-17 12:59 43.408783 -124.239980 97 11ft 0kts
23-Dec-17 13:00 43.408783 -124.239973 97 11ft 0kts
23-Dec-17 13:01 43.408782 -124.239967 97 11ft 0kts
23-Dec-17 13:02 43.408781 -124.239960 97 11ft 0kts
23-Dec-17 13:03 43.408781 -124.239953 97 11ft 0kts
23-Dec-17 13:04 43.408780 -124.239946 97 11ft 0kts
23-Dec-17 13:05 43.408779 -124.239939 97 11ft 0kts
23-Dec-17 13:06 43.408779 -124.239932 97 11ft 0kts
23-Dec-17 13:07 43.408828 -124.239719 23 11ft 5kts
23-Dec-17 13:08 43.412134 -124.241477 329 11ft 14kts
23-Dec-17 13:09 43.415117 -124.243837 330 11ft 10kts
23-Dec-17 13:10 43.417214 -124.245544 324 11ft 7kts
23-Dec-17 13:11 43.418189 -124.246397 327 11ft 0kts
23-Dec-17 13:12 43.418194 -124.246401 327 11ft 0kts
23-Dec-17 13:13 43.419262 -124.246757 76 11ft 0kts
23-Dec-17 13:14 43.419266 -124.246734 75 11ft 0kts
23-Dec-17 13:15 43.416981 -124.243928 150 11ft 60kts
23-Dec-17 13:16 43.409155 -124.239072 313 11ft 4kts
23-Dec-17 13:17 43.409251 -124.239949 359 11ft 0kts
23-Dec-17 13:18 43.409251 -124.239949 359 11ft 0kts
23-Dec-17 13:19 43.409251 -124.239949 359 11ft 0kts
23-Dec-17 13:22 43.419253 -124.246704 52 11ft 0kts
23-Dec-17 13:23 43.419257 -124.246697 52 11ft 0kts
23-Dec-17 13:24 43.419261 -124.246691 52 11ft 0kts
23-Dec-17 13:25 43.419504 -124.246356 44 11ft 12kts
23-Dec-17 13:26 43.406794 -124.235499 143 359ft 81kts
23-Dec-17 13:27 43.393676 -124.244436 293 1125ft 93kts
23-Dec-17 13:28 43.410767 -124.267585 9 2149ft 93kts
23-Dec-17 13:29 43.412076 -124.235444 98 3343ft 100kts
23-Dec-17 13:30 43.410223 -124.196659 92 4019ft 102kts
23-Dec-17 13:31 43.417797 -124.158839 42 4485ft 104kts
23-Dec-17 13:32 43.440612 -124.137897 51 4948ft 117kts
23-Dec-17 13:33 43.466339 -124.101513 44 4975ft 132kts
23-Dec-17 13:34 43.491795 -124.067774 44 4977ft 126kts
23-Dec-17 13:35 43.515431 -124.036476 44 4981ft 126kts
23-Dec-17 13:36 43.540281 -124.003551 44 4982ft 122kts
23-Dec-17 13:37 43.564684 -123.971181 44 4984ft 121kts
23-Dec-17 13:38 43.588363 -123.939736 44 4984ft 121kts
23-Dec-17 13:39 43.612615 -123.907494 44 4989ft 121kts
23-Dec-17 13:40 43.636954 -123.875089 44 4993ft 130kts
23-Dec-17 13:41 43.664090 -123.838883 44 4961ft 128kts
23-Dec-17 13:42 43.688360 -123.806548 44 4983ft 117kts
23-Dec-17 13:43 43.711486 -123.775637 44 4991ft 119kts
23-Dec-17 13:44 43.735489 -123.743537 44 4988ft 120kts
23-Dec-17 13:45 43.754490 -123.707694 82 4997ft 119kts
23-Dec-17 13:46 43.758140 -123.658296 84 4575ft 136kts
23-Dec-17 13:47 43.762379 -123.605542 84 4076ft 138kts
23-Dec-17 13:48 43.766674 -123.556085 84 3988ft 122kts
23-Dec-17 13:49 43.770731 -123.509631 84 3994ft 122kts
23-Dec-17 13:50 43.774801 -123.462943 84 3996ft 122kts
23-Dec-17 13:51 43.778858 -123.416335 84 3997ft 122kts
23-Dec-17 13:52 43.782918 -123.369862 84 3998ft 122kts
23-Dec-17 13:53 43.786907 -123.323352 84 4001ft 121kts
23-Dec-17 13:54 43.790810 -123.276894 84 4002ft 122kts
23-Dec-17 13:55 43.809489 -123.242203 41 4022ft 123kts
23-Dec-17 13:56 43.836988 -123.215324 9 4015ft 124kts
23-Dec-17 13:57 43.871430 -123.215167 359 4014ft 125kts
23-Dec-17 13:58 43.906344 -123.215678 0 3995ft 126kts
23-Dec-17 13:59 43.944583 -123.216245 0 3418ft 143kts
23-Dec-17 14:00 43.983735 -123.216842 0 2687ft 138kts
23-Dec-17 14:01 44.023165 -123.217422 0 2015ft 143kts
23-Dec-17 14:02 44.061102 -123.218007 0 1363ft 130kts
23-Dec-17 14:03 44.096707 -123.218556 0 741ft 126kts
23-Dec-17 14:04 44.118488 -123.218846 1 372ft 26kts
23-Dec-17 14:05 44.120978 -123.217792 88 372ft 0kts
23-Dec-17 14:06 44.118713 -123.215656 149 372ft 19kts
23-Dec-17 14:07 44.117127 -123.215581 127 372ft 0kts
23-Dec-17 14:08 44.117127 -123.215581 127 372ft 0kts
23-Dec-17 14:09 44.117127 -123.215581 127 372ft 0kts
23-Dec-17 14:10 44.117127 -123.215581 127 372ft 0kts
23-Dec-17 14:11 44.117127 -123.215581 127 372ft 0kts
23-Dec-17 14:12 44.117127 -123.215581 127 372ft 0kts
23-Dec-17 14:13 44.117127 -123.215581 127 372ft 0kts
23-Dec-17 14:14 44.117127 -123.215581 127 372ft 0kts
23-Dec-17 14:15 44.117127 -123.215581 127 372ft 0kts
23-Dec-17 14:16 44.117127 -123.215581 127 372ft 0kts
23-Dec-17 14:17 44.117127 -123.215581 127 372ft 0kts
23-Dec-17 14:18 44.117127 -123.215581 127 372ft 0kts

Navigation Log

Ident Type
Flight plan parsing failed, navigation log unavailable